createdAt,value
2019-02-27T14:10:58.973Z,21.30
2019-02-27T14:13:30.897Z,20.40
2019-02-27T14:16:00.819Z,20.90
2019-02-27T14:18:32.249Z,19.90
2019-02-27T14:21:02.378Z,19.70
2019-02-27T14:23:32.932Z,18.90
2019-02-27T14:26:05.593Z,18.80
2019-02-27T14:28:32.915Z,18.20
2019-02-27T14:31:03.096Z,18.40
2019-02-27T14:33:32.248Z,18.10
2019-02-27T14:36:01.380Z,18.20
2019-02-27T14:38:31.192Z,18.50
2019-02-27T14:41:00.354Z,18.70
2019-02-27T14:43:29.514Z,18.80
2019-02-27T14:45:58.723Z,19.30
2019-02-27T14:48:27.866Z,20.00
2019-02-27T14:50:57.039Z,20.60
2019-02-27T14:53:26.212Z,21.10
2019-02-27T14:55:55.426Z,21.40
2019-02-27T14:58:25.076Z,21.90
2019-02-27T15:00:54.292Z,22.20
2019-02-27T15:03:29.246Z,22.40
2019-02-27T15:05:57.420Z,22.20
2019-02-27T15:08:26.497Z,22.60
2019-02-27T15:10:55.659Z,23.50
2019-02-27T15:13:28.173Z,23.80
2019-02-27T15:15:55.785Z,23.60
2019-02-27T15:18:26.964Z,23.90
2019-02-27T15:21:01.745Z,24.20
2019-02-27T15:23:31.516Z,24.40
2019-02-27T15:26:00.697Z,24.60
2019-02-27T15:28:32.910Z,24.90
2019-02-27T15:31:00.691Z,25.00
2019-02-27T15:33:31.913Z,25.10
2019-02-27T15:36:01.108Z,25.10
2019-02-27T15:38:31.760Z,25.10
2019-02-27T15:41:03.230Z,25.30
2019-02-27T15:43:31.977Z,24.70
2019-02-27T15:46:01.455Z,24.60
2019-02-27T15:48:31.013Z,24.50
2019-02-27T15:51:03.158Z,24.70
2019-02-27T15:53:32.660Z,24.90
2019-02-27T15:56:01.820Z,24.90
2019-02-27T15:58:32.190Z,25.00
2019-02-27T16:01:01.880Z,25.10
2019-02-27T16:03:32.752Z,25.10
2019-02-27T16:06:05.542Z,25.10
2019-02-27T16:08:34.395Z,25.20
2019-02-27T16:11:03.554Z,25.50
2019-02-27T16:13:34.688Z,25.70
2019-02-27T16:16:04.793Z,26.00
2019-02-27T16:18:36.939Z,26.10
2019-02-27T16:21:08.264Z,25.90
2019-02-27T16:23:38.078Z,26.10
2019-02-27T16:26:07.540Z,26.00
2019-02-27T16:28:36.704Z,26.40
2019-02-27T16:31:06.342Z,26.30
2019-02-27T16:33:36.289Z,26.50
2019-02-27T16:36:05.439Z,26.60
2019-02-27T16:38:34.645Z,26.80
2019-02-27T16:41:03.854Z,27.10
2019-02-27T16:43:33.022Z,27.20
2019-02-27T16:46:02.226Z,27.20
2019-02-27T16:48:34.602Z,27.40
2019-02-27T16:51:03.275Z,27.50
2019-02-27T16:53:32.419Z,27.60
2019-02-27T16:56:01.787Z,27.80
2019-02-27T16:58:33.089Z,27.90
2019-02-27T17:01:01.880Z,28.00
2019-02-27T17:03:31.019Z,28.10
2019-02-27T17:06:00.180Z,28.20
2019-02-27T17:08:29.330Z,28.50
2019-02-27T17:10:59.756Z,28.70
2019-02-27T17:13:29.099Z,28.70
2019-02-27T17:15:58.254Z,28.70
2019-02-27T17:18:28.332Z,28.90
2019-02-27T17:20:58.564Z,29.00
2019-02-27T17:23:27.795Z,29.00
2019-02-27T17:25:57.356Z,29.20
2019-02-27T17:28:28.079Z,28.70
2019-02-27T17:30:57.558Z,29.30
2019-02-27T17:33:26.859Z,29.30
2019-02-27T17:35:59.298Z,29.40
2019-02-27T17:38:26.967Z,29.40
2019-02-27T17:40:56.285Z,29.50
2019-02-27T17:43:29.468Z,29.60
2019-02-27T17:45:56.850Z,29.70
2019-02-27T17:48:26.207Z,29.80
2019-02-27T17:50:55.612Z,29.90
2019-02-27T17:53:24.972Z,30.00
2019-02-27T17:55:54.311Z,30.30
2019-02-27T17:58:23.594Z,30.40
2019-02-27T18:00:54.640Z,30.70
2019-02-27T18:03:25.020Z,30.90
2019-02-27T18:05:56.415Z,30.90
2019-02-27T18:08:25.476Z,31.20
2019-02-27T18:10:54.693Z,31.40
2019-02-27T18:13:23.896Z,31.50
2019-02-27T18:15:53.377Z,31.60
2019-02-27T18:18:24.278Z,32.00
2019-02-27T18:20:56.815Z,32.10
2019-02-27T18:23:25.308Z,32.30
2019-02-27T18:25:54.783Z,32.60
2019-02-27T18:28:24.072Z,32.60
2019-02-27T18:30:53.842Z,32.90
2019-02-27T18:33:23.357Z,33.20
2019-02-27T18:35:54.467Z,33.50
2019-02-27T18:38:27.810Z,33.60
2019-02-27T18:40:57.373Z,33.70
2019-02-27T18:43:27.225Z,33.80
2019-02-27T18:45:57.524Z,33.90
2019-02-27T18:48:26.966Z,33.90
2019-02-27T18:50:58.627Z,33.50
2019-02-27T18:53:27.247Z,33.40
2019-02-27T18:56:03.259Z,33.60
2019-02-27T18:58:33.568Z,33.60
2019-02-27T19:01:04.177Z,33.20
2019-02-27T19:03:33.443Z,33.10
2019-02-27T19:06:02.597Z,33.30
2019-02-27T19:08:31.755Z,33.50
2019-02-27T19:11:01.284Z,33.40
2019-02-27T19:13:32.408Z,33.30
2019-02-27T19:16:02.207Z,33.30
2019-02-27T19:18:31.441Z,33.40
2019-02-27T19:21:03.328Z,33.40
2019-02-27T19:23:33.154Z,33.50
2019-02-27T19:26:02.377Z,33.40
2019-02-27T19:28:31.953Z,33.50
2019-02-27T19:31:01.207Z,33.50
2019-02-27T19:33:32.548Z,33.50
2019-02-27T19:36:04.340Z,33.60
2019-02-27T19:38:33.520Z,33.50
2019-02-27T19:41:04.129Z,33.60
2019-02-27T19:43:34.798Z,34.00
2019-02-27T19:46:04.078Z,33.80
2019-02-27T19:48:33.329Z,33.80
2019-02-27T19:51:03.853Z,34.00
2019-02-27T19:53:33.118Z,34.10
2019-02-27T19:56:08.504Z,34.10
2019-02-27T19:58:42.375Z,34.20
2019-02-27T20:01:11.728Z,34.40
2019-02-27T20:03:41.029Z,34.10
2019-02-27T20:06:10.343Z,34.30
2019-02-27T20:08:44.422Z,34.50
2019-02-27T20:11:10.406Z,34.50
2019-02-27T20:13:39.629Z,34.50
2019-02-27T20:16:08.960Z,34.50
2019-02-27T20:18:40.530Z,34.60
2019-02-27T20:21:10.659Z,34.50
2019-02-27T20:23:42.972Z,34.60
2019-02-27T20:26:14.410Z,34.70
2019-02-27T20:28:44.834Z,34.90
2019-02-27T20:31:17.979Z,35.10
2019-02-27T20:33:45.073Z,35.30
2019-02-27T20:36:14.347Z,35.40
2019-02-27T20:38:47.504Z,35.30
2019-02-27T20:41:17.658Z,35.50
2019-02-27T20:43:46.901Z,35.80
2019-02-27T20:46:16.999Z,36.40
2019-02-27T20:48:47.329Z,36.10
2019-02-27T20:51:16.607Z,36.20
2019-02-27T20:53:45.923Z,36.50
2019-02-27T20:56:15.698Z,36.50
2019-02-27T20:58:51.042Z,36.70
2019-02-27T21:01:17.236Z,36.80
2019-02-27T21:03:47.687Z,37.00
2019-02-27T21:06:16.858Z,37.10
2019-02-27T21:08:46.037Z,37.10
2019-02-27T21:11:15.187Z,37.30
2019-02-27T21:13:49.350Z,37.40
2019-02-27T21:16:16.872Z,37.60
2019-02-27T21:18:46.278Z,37.70
2019-02-27T21:21:16.945Z,37.90
2019-02-27T21:23:47.397Z,38.10
2019-02-27T21:26:16.607Z,38.20
2019-02-27T21:28:58.080Z,38.30
2019-02-27T21:31:19.280Z,38.60
2019-02-27T21:33:48.458Z,38.60
2019-02-27T21:36:19.003Z,38.80
2019-02-27T21:38:50.284Z,38.80
2019-02-27T21:41:20.017Z,39.20
2019-02-27T21:43:49.244Z,39.20
2019-02-27T21:46:18.395Z,39.40
2019-02-27T21:48:50.819Z,39.60
2019-02-27T21:51:19.968Z,39.50
2019-02-27T21:53:50.738Z,39.60
2019-02-27T21:56:19.907Z,39.70
2019-02-27T21:58:49.147Z,39.90
2019-02-27T22:01:22.003Z,40.00
2019-02-27T22:03:50.963Z,39.90
2019-02-27T22:06:21.639Z,40.00
2019-02-27T22:08:51.404Z,40.00
2019-02-27T22:11:24.155Z,40.00
2019-02-27T22:13:53.969Z,40.00
2019-02-27T22:16:23.127Z,40.00
2019-02-27T22:18:52.335Z,40.00
2019-02-27T22:21:21.518Z,40.10
2019-02-27T22:23:51.632Z,40.10
2019-02-27T22:26:20.800Z,40.20
2019-02-27T22:28:51.105Z,40.30
2019-02-27T22:31:21.467Z,40.40
2019-02-27T22:33:53.129Z,40.40
2019-02-27T22:36:21.453Z,40.50
2019-02-27T22:38:50.679Z,40.50
2019-02-27T22:41:19.809Z,40.60
2019-02-27T22:43:48.946Z,40.50
2019-02-27T22:46:18.092Z,40.80
2019-02-27T22:48:47.636Z,40.70
2019-02-27T22:51:16.881Z,40.70
2019-02-27T22:53:46.487Z,40.90
2019-02-27T22:56:16.785Z,40.90
2019-02-27T22:58:46.367Z,41.00
2019-02-27T23:01:21.164Z,41.00
2019-02-27T23:03:54.959Z,41.10
2019-02-27T23:06:23.875Z,41.10
2019-02-27T23:08:54.388Z,41.20
2019-02-27T23:11:24.103Z,41.30
2019-02-27T23:13:53.374Z,41.40
2019-02-27T23:16:22.519Z,41.50
2019-02-27T23:18:51.746Z,41.40
2019-02-27T23:21:21.145Z,41.50
2019-02-27T23:23:50.822Z,41.60
2019-02-27T23:26:22.441Z,41.60
2019-02-27T23:28:59.027Z,41.70
2019-02-27T23:31:29.547Z,41.90
2019-02-27T23:33:58.683Z,42.10
2019-02-27T23:36:28.157Z,42.20
2019-02-27T23:38:57.703Z,42.20
2019-02-27T23:41:56.543Z,42.50
2019-02-27T23:44:25.385Z,42.50
2019-02-27T23:46:57.464Z,42.60
2019-02-27T23:49:27.128Z,42.70
2019-02-27T23:51:56.353Z,42.80
2019-02-27T23:54:27.019Z,42.90
2019-02-27T23:56:56.587Z,43.10
2019-02-27T23:59:25.788Z,43.20
